createdAt,value
2023-04-03T00:00:11.068Z,101775.12
2023-04-03T00:01:11.073Z,101777.32
2023-04-03T00:02:11.097Z,101777.40
2023-04-03T00:03:11.113Z,101777.40
2023-04-03T00:04:11.110Z,101779.45
2023-04-03T00:05:11.069Z,101777.69
2023-04-03T00:06:11.069Z,101776.08
2023-04-03T00:07:11.076Z,101776.04
2023-04-03T00:08:12.100Z,101777.01
2023-04-03T00:09:11.068Z,101774.94
2023-04-03T00:10:11.074Z,101773.55
2023-04-03T00:11:11.069Z,101774.46
2023-04-03T00:12:11.070Z,101772.30
2023-04-03T00:13:11.073Z,101772.07
2023-04-03T00:14:11.065Z,101774.46
2023-04-03T00:15:11.069Z,101775.23
2023-04-03T00:16:11.076Z,101773.32
2023-04-03T00:17:11.120Z,101777.32
2023-04-03T00:18:11.068Z,101774.86
2023-04-03T00:19:11.073Z,101779.17
2023-04-03T00:20:11.074Z,101777.75
2023-04-03T00:21:11.074Z,101776.93
2023-04-03T00:22:11.077Z,101780.00
2023-04-03T00:23:11.077Z,101779.20
2023-04-03T00:24:11.082Z,101777.18
2023-04-03T00:25:11.114Z,101776.41
2023-04-03T00:26:11.069Z,101776.74
2023-04-03T00:27:11.079Z,101775.62
2023-04-03T00:28:11.085Z,101774.02
2023-04-03T00:29:11.066Z,101777.21
2023-04-03T00:30:11.078Z,101775.81
2023-04-03T00:31:11.151Z,101780.97
2023-04-03T00:32:11.076Z,101777.74
2023-04-03T00:33:12.071Z,101778.38
2023-04-03T00:34:11.090Z,101777.86
2023-04-03T00:35:11.069Z,101776.18
2023-04-03T00:36:11.192Z,101778.30
2023-04-03T00:37:11.080Z,101775.71
2023-04-03T00:38:11.078Z,101775.77
2023-04-03T00:39:11.077Z,101773.95
2023-04-03T00:40:11.080Z,101777.71
2023-04-03T00:41:11.098Z,101775.22
2023-04-03T00:42:11.115Z,101773.45
2023-04-03T00:43:15.079Z,101774.34
2023-04-03T00:44:19.075Z,101772.18
2023-04-03T00:45:19.093Z,101774.07
2023-04-03T00:46:11.097Z,101771.60
2023-04-03T00:47:12.069Z,101768.88
2023-04-03T00:48:14.074Z,101772.21
2023-04-03T00:49:11.084Z,101772.21
2023-04-03T00:50:11.081Z,101768.00
2023-04-03T00:51:17.073Z,101770.72
2023-04-03T00:52:12.084Z,101772.07
2023-04-03T00:53:13.085Z,101772.76
2023-04-03T00:54:11.073Z,101770.53
2023-04-03T00:55:11.072Z,101775.90
2023-04-03T00:56:13.077Z,101773.51
2023-04-03T00:57:11.093Z,101771.29
2023-04-03T00:58:11.077Z,101772.09
2023-04-03T00:59:16.078Z,101770.56
2023-04-03T01:00:11.080Z,101771.46
2023-04-03T01:01:13.067Z,101770.55
2023-04-03T01:02:11.059Z,101771.20
2023-04-03T01:03:11.060Z,101770.77
2023-04-03T01:04:19.104Z,101769.03
2023-04-03T01:05:11.062Z,101769.00
2023-04-03T01:06:11.071Z,101772.84
2023-04-03T01:07:19.070Z,101769.96
2023-04-03T01:08:11.059Z,101767.67
2023-04-03T01:09:11.067Z,101762.21
2023-04-03T01:10:11.066Z,101763.90
2023-04-03T01:11:11.087Z,101762.54
2023-04-03T01:12:18.066Z,101761.86
2023-04-03T01:13:19.079Z,101762.03
2023-04-03T01:14:11.061Z,101764.75
2023-04-03T01:15:18.077Z,101766.81
2023-04-03T01:16:11.212Z,101767.55
2023-04-03T01:17:19.080Z,101765.95
2023-04-03T01:18:12.062Z,101769.49
2023-04-03T01:19:16.064Z,101765.09
2023-04-03T01:20:22.073Z,101763.79
2023-04-03T01:21:19.071Z,101766.08
2023-04-03T01:22:25.064Z,101767.44
2023-04-03T01:23:22.064Z,101768.48
2023-04-03T01:24:20.060Z,101763.85
2023-04-03T01:25:11.063Z,101767.60
2023-04-03T01:26:11.067Z,101762.58
2023-04-03T01:27:11.064Z,101762.79
2023-04-03T01:28:12.076Z,101759.00
2023-04-03T01:29:11.071Z,101762.46
2023-04-03T01:30:11.068Z,101761.34
2023-04-03T01:31:19.078Z,101760.58
2023-04-03T01:32:11.076Z,101758.68
2023-04-03T01:33:11.071Z,101756.91
2023-04-03T01:34:11.067Z,101758.05
2023-04-03T01:35:11.072Z,101755.01
2023-04-03T01:36:11.149Z,101752.99
2023-04-03T01:37:11.066Z,101751.72
2023-04-03T01:38:11.068Z,101752.76
2023-04-03T01:39:11.063Z,101751.38
2023-04-03T01:40:11.068Z,101748.60
2023-04-03T01:41:11.078Z,101748.92
2023-04-03T01:42:11.065Z,101749.73
2023-04-03T01:43:11.084Z,101749.87
2023-04-03T01:44:11.079Z,101749.23
2023-04-03T01:45:11.064Z,101750.89
2023-04-03T01:46:11.199Z,101745.59
2023-04-03T01:47:11.073Z,101748.32
2023-04-03T01:48:11.070Z,101746.97
2023-04-03T01:49:11.068Z,101745.25
2023-04-03T01:50:11.073Z,101746.20
2023-04-03T01:51:11.077Z,101747.46
2023-04-03T01:52:11.064Z,101745.85
2023-04-03T01:53:11.078Z,101746.75
2023-04-03T01:54:11.065Z,101748.32
2023-04-03T01:55:11.066Z,101749.46
2023-04-03T01:56:11.068Z,101745.96
2023-04-03T01:57:11.091Z,101750.29
2023-04-03T01:58:11.070Z,101749.39
2023-04-03T01:59:11.074Z,101750.12
2023-04-03T02:00:11.068Z,101749.74
2023-04-03T02:01:11.080Z,101754.65
2023-04-03T02:02:11.076Z,101752.28
2023-04-03T02:03:11.076Z,101755.53
2023-04-03T02:04:11.071Z,101753.46
2023-04-03T02:05:11.076Z,101754.04
2023-04-03T02:06:12.782Z,101753.58
2023-04-03T02:07:11.065Z,101756.05
2023-04-03T02:08:11.085Z,101756.65
2023-04-03T02:09:11.069Z,101757.64
2023-04-03T02:10:11.079Z,101752.91
2023-04-03T02:11:11.074Z,101751.07
2023-04-03T02:12:11.069Z,101752.10
2023-04-03T02:13:11.066Z,101754.25
2023-04-03T02:14:11.070Z,101755.15
2023-04-03T02:15:11.067Z,101751.43
2023-04-03T02:16:11.178Z,101752.29
2023-04-03T02:17:13.066Z,101753.88
2023-04-03T02:18:11.073Z,101752.90
2023-04-03T02:19:11.065Z,101750.47
2023-04-03T02:20:11.101Z,101756.27
2023-04-03T02:21:11.066Z,101756.58
2023-04-03T02:22:11.075Z,101754.26
2023-04-03T02:23:11.065Z,101753.86
2023-04-03T02:24:11.070Z,101752.61
2023-04-03T02:25:11.072Z,101752.36
2023-04-03T02:26:14.064Z,101754.43
2023-04-03T02:27:11.069Z,101756.59
2023-04-03T02:28:11.061Z,101755.36
2023-04-03T02:29:11.076Z,101758.46
2023-04-03T02:30:11.102Z,101755.32
2023-04-03T02:31:11.227Z,101754.85
2023-04-03T02:32:11.065Z,101754.12
2023-04-03T02:33:11.070Z,101753.78
2023-04-03T02:34:11.059Z,101753.75
2023-04-03T02:35:11.069Z,101751.62
2023-04-03T02:36:11.081Z,101748.48
2023-04-03T02:37:11.066Z,101752.48
2023-04-03T02:38:11.068Z,101750.29
2023-04-03T02:39:11.069Z,101750.48
2023-04-03T02:40:11.067Z,101748.75
2023-04-03T02:41:11.068Z,101751.48
2023-04-03T02:42:11.069Z,101753.93
2023-04-03T02:43:11.067Z,101752.21
2023-04-03T02:44:13.071Z,101751.43
2023-04-03T02:45:11.074Z,101753.25
2023-04-03T02:46:11.106Z,101750.20
2023-04-03T02:47:11.060Z,101752.33
2023-04-03T02:48:11.104Z,101747.88
2023-04-03T02:49:11.067Z,101750.11
2023-04-03T02:50:11.079Z,101748.63
2023-04-03T02:51:11.075Z,101750.00
2023-04-03T02:52:11.070Z,101749.42
2023-04-03T02:53:11.063Z,101743.01
2023-04-03T02:54:11.069Z,101746.36
2023-04-03T02:55:14.072Z,101746.68
2023-04-03T02:56:11.063Z,101745.23
2023-04-03T02:57:11.104Z,101745.86
2023-04-03T02:58:11.086Z,101745.05
2023-04-03T02:59:11.069Z,101746.15
2023-04-03T03:00:11.076Z,101747.93
2023-04-03T03:01:11.093Z,101744.16
2023-04-03T03:02:11.071Z,101747.89
2023-04-03T03:03:11.067Z,101746.66
2023-04-03T03:04:11.073Z,101746.19
2023-04-03T03:05:11.110Z,101743.00
2023-04-03T03:06:14.067Z,101741.94
2023-04-03T03:07:11.090Z,101740.52
2023-04-03T03:08:11.071Z,101740.07
2023-04-03T03:09:11.079Z,101741.69
2023-04-03T03:10:11.075Z,101742.62
2023-04-03T03:11:11.065Z,101739.15
2023-04-03T03:12:11.075Z,101744.78
2023-04-03T03:13:11.073Z,101741.82
2023-04-03T03:14:11.066Z,101742.25
2023-04-03T03:15:11.066Z,101740.85
2023-04-03T03:16:11.156Z,101745.17
2023-04-03T03:17:11.071Z,101744.23
2023-04-03T03:18:11.070Z,101744.38
2023-04-03T03:19:11.073Z,101741.07
2023-04-03T03:20:11.070Z,101738.05
2023-04-03T03:21:12.066Z,101736.97
2023-04-03T03:22:11.082Z,101739.62
2023-04-03T03:23:11.062Z,101738.09
2023-04-03T03:24:11.068Z,101738.73
2023-04-03T03:25:11.077Z,101741.67
2023-04-03T03:26:12.071Z,101738.45
2023-04-03T03:27:11.071Z,101737.47
2023-04-03T03:28:11.076Z,101738.62
2023-04-03T03:29:11.063Z,101739.24
2023-04-03T03:30:11.076Z,101739.65
2023-04-03T03:31:13.106Z,101740.85
2023-04-03T03:32:11.070Z,101741.06
2023-04-03T03:33:11.063Z,101741.91
2023-04-03T03:34:11.069Z,101743.20
2023-04-03T03:35:11.068Z,101741.51
2023-04-03T03:36:11.095Z,101742.81
2023-04-03T03:37:11.081Z,101741.42
2023-04-03T03:38:11.072Z,101741.44
2023-04-03T03:39:11.064Z,101746.11
2023-04-03T03:40:11.068Z,101742.23
2023-04-03T03:41:11.068Z,101741.33
2023-04-03T03:42:11.063Z,101742.79
2023-04-03T03:43:11.068Z,101739.77
2023-04-03T03:44:11.095Z,101741.63
2023-04-03T03:45:11.066Z,101740.21
2023-04-03T03:46:11.158Z,101742.86
2023-04-03T03:47:11.069Z,101738.17
2023-04-03T03:48:11.064Z,101738.32
2023-04-03T03:49:11.070Z,101741.82
2023-04-03T03:50:11.067Z,101738.75
2023-04-03T03:51:11.070Z,101738.28
2023-04-03T03:52:11.069Z,101736.70
2023-04-03T03:53:11.068Z,101736.40
2023-04-03T03:54:11.072Z,101738.11
2023-04-03T03:55:11.067Z,101736.75
2023-04-03T03:56:11.074Z,101735.24
2023-04-03T03:57:11.121Z,101736.91
2023-04-03T03:58:11.094Z,101734.63
2023-04-03T03:59:12.071Z,101737.57
2023-04-03T04:00:11.067Z,101736.54
2023-04-03T04:01:11.067Z,101736.16
2023-04-03T04:02:11.115Z,101739.12
2023-04-03T04:03:11.119Z,101741.39
2023-04-03T04:04:11.121Z,101742.02
2023-04-03T04:05:11.063Z,101742.98
2023-04-03T04:06:11.069Z,101745.52
2023-04-03T04:07:11.069Z,101747.25
2023-04-03T04:08:11.064Z,101747.66
2023-04-03T04:09:11.064Z,101744.18
2023-04-03T04:10:11.068Z,101742.79
2023-04-03T04:11:11.062Z,101745.47
2023-04-03T04:12:11.059Z,101745.00
2023-04-03T04:13:11.066Z,101743.96
2023-04-03T04:14:11.065Z,101746.26
2023-04-03T04:15:11.068Z,101746.15
2023-04-03T04:16:11.076Z,101747.32
2023-04-03T04:17:11.073Z,101746.47
2023-04-03T04:18:11.064Z,101742.98
2023-04-03T04:19:11.072Z,101742.12
2023-04-03T04:20:11.062Z,101738.34
2023-04-03T04:21:11.066Z,101735.45
2023-04-03T04:22:11.074Z,101737.27
2023-04-03T04:23:11.064Z,101735.78
2023-04-03T04:24:11.064Z,101734.03
2023-04-03T04:25:11.072Z,101735.72
2023-04-03T04:26:11.070Z,101733.33
2023-04-03T04:27:11.066Z,101733.53
2023-04-03T04:28:11.074Z,101728.00
2023-04-03T04:29:11.069Z,101729.08
2023-04-03T04:30:11.072Z,101729.74
2023-04-03T04:31:11.142Z,101731.58
2023-04-03T04:32:11.061Z,101731.13
2023-04-03T04:33:11.094Z,101730.55
2023-04-03T04:34:11.061Z,101729.32
2023-04-03T04:35:11.112Z,101728.43
2023-04-03T04:36:11.133Z,101725.51
2023-04-03T04:37:11.070Z,101725.31
2023-04-03T04:38:11.061Z,101724.14
2023-04-03T04:39:11.065Z,101726.16
2023-04-03T04:40:11.068Z,101724.70
2023-04-03T04:41:11.061Z,101720.76
2023-04-03T04:42:11.060Z,101726.99
2023-04-03T04:43:11.082Z,101725.20
2023-04-03T04:44:11.060Z,101725.12
2023-04-03T04:45:11.062Z,101723.61
2023-04-03T04:46:11.099Z,101724.78
2023-04-03T04:47:11.061Z,101723.09
2023-04-03T04:48:11.063Z,101726.14
2023-04-03T04:49:11.070Z,101725.66
2023-04-03T04:50:11.058Z,101723.94
2023-04-03T04:51:11.067Z,101722.00
2023-04-03T04:52:11.065Z,101724.00
2023-04-03T04:53:11.061Z,101723.00
2023-04-03T04:54:11.062Z,101723.33
2023-04-03T04:55:11.073Z,101720.71
2023-04-03T04:56:11.067Z,101721.69
2023-04-03T04:57:11.074Z,101723.09
2023-04-03T04:58:11.064Z,101723.22
2023-04-03T04:59:11.061Z,101723.90
2023-04-03T05:00:11.067Z,101721.58
2023-04-03T05:01:11.201Z,101720.69
2023-04-03T05:02:11.061Z,101722.45
2023-04-03T05:03:11.071Z,101721.40
2023-04-03T05:04:11.065Z,101723.18
2023-04-03T05:05:11.240Z,101723.65
2023-04-03T05:06:11.074Z,101724.25
2023-04-03T05:07:11.064Z,101727.81
2023-04-03T05:08:11.064Z,101726.36
2023-04-03T05:09:11.089Z,101728.84
2023-04-03T05:10:11.076Z,101729.27
2023-04-03T05:11:11.065Z,101732.51
2023-04-03T05:12:11.072Z,101734.38
2023-04-03T05:13:11.073Z,101733.36
2023-04-03T05:14:11.069Z,101735.53
2023-04-03T05:15:11.079Z,101738.59
2023-04-03T05:16:11.232Z,101737.79
2023-04-03T05:17:11.064Z,101736.25
2023-04-03T05:18:11.084Z,101735.75
2023-04-03T05:19:11.072Z,101732.80
2023-04-03T05:20:11.064Z,101733.44
2023-04-03T05:21:11.076Z,101734.21
2023-04-03T05:22:11.066Z,101737.30
2023-04-03T05:23:11.069Z,101741.43
2023-04-03T05:24:11.089Z,101741.63
2023-04-03T05:25:11.073Z,101744.90
2023-04-03T05:26:11.066Z,101742.48
2023-04-03T05:27:11.076Z,101742.15
2023-04-03T05:28:11.068Z,101746.74
2023-04-03T05:29:11.088Z,101740.82
2023-04-03T05:30:11.078Z,101744.39
2023-04-03T05:31:11.124Z,101745.57
2023-04-03T05:32:11.068Z,101747.59
2023-04-03T05:33:11.105Z,101752.11
2023-04-03T05:34:11.066Z,101753.30
2023-04-03T05:35:11.065Z,101753.84
2023-04-03T05:36:11.107Z,101756.32
2023-04-03T05:37:11.066Z,101756.52
2023-04-03T05:38:11.066Z,101754.33
2023-04-03T05:39:11.086Z,101755.93
2023-04-03T05:40:11.063Z,101753.22
2023-04-03T05:41:11.064Z,101756.24
2023-04-03T05:42:11.065Z,101759.13
2023-04-03T05:43:11.062Z,101756.04
2023-04-03T05:44:11.069Z,101751.87
2023-04-03T05:45:11.077Z,101754.72
2023-04-03T05:46:15.085Z,101756.25
2023-04-03T05:47:11.071Z,101758.29
2023-04-03T05:48:11.111Z,101756.48
2023-04-03T05:49:11.068Z,101755.53
2023-04-03T05:50:11.067Z,101757.01
2023-04-03T05:51:19.074Z,101755.78
2023-04-03T05:52:22.073Z,101758.43
2023-04-03T05:53:15.067Z,101758.83
2023-04-03T05:54:17.075Z,101761.06
2023-04-03T05:55:11.067Z,101761.57
2023-04-03T05:56:11.071Z,101760.13
2023-04-03T05:57:11.095Z,101761.48
2023-04-03T05:58:11.688Z,101761.46
2023-04-03T05:59:11.067Z,101763.81
2023-04-03T06:00:13.082Z,101761.38
2023-04-03T06:01:11.084Z,101763.31
2023-04-03T06:02:11.063Z,101762.38
2023-04-03T06:03:11.173Z,101757.57
2023-04-03T06:04:11.179Z,101760.30
2023-04-03T06:05:11.174Z,101759.84
2023-04-03T06:06:13.064Z,101761.76
2023-04-03T06:07:13.074Z,101763.23
2023-04-03T06:08:11.084Z,101762.82
2023-04-03T06:09:11.060Z,101765.43
2023-04-03T06:10:11.079Z,101759.20
2023-04-03T06:11:11.070Z,101757.78
2023-04-03T06:12:11.093Z,101757.46
2023-04-03T06:13:11.068Z,101758.71
2023-04-03T06:14:11.076Z,101756.74
2023-04-03T06:15:11.079Z,101761.15
2023-04-03T06:16:13.071Z,101759.35
2023-04-03T06:17:11.095Z,101761.65
2023-04-03T06:18:11.062Z,101760.43
2023-04-03T06:19:11.061Z,101758.68
2023-04-03T06:20:11.075Z,101755.00
2023-04-03T06:21:12.064Z,101755.44
2023-04-03T06:22:11.074Z,101753.36
2023-04-03T06:23:11.079Z,101756.52
2023-04-03T06:24:13.065Z,101755.77
2023-04-03T06:25:11.132Z,101757.02
2023-04-03T06:26:11.089Z,101756.31
2023-04-03T06:27:12.077Z,101758.64
2023-04-03T06:28:11.090Z,101755.41
2023-04-03T06:29:11.101Z,101758.67
2023-04-03T06:30:11.065Z,101759.84
2023-04-03T06:31:11.081Z,101757.14
2023-04-03T06:32:11.076Z,101758.95
2023-04-03T06:33:11.106Z,101757.28
2023-04-03T06:34:11.064Z,101753.58
2023-04-03T06:35:11.075Z,101751.98
2023-04-03T06:36:11.094Z,101753.49
2023-04-03T06:37:19.066Z,101755.85
2023-04-03T06:38:14.064Z,101755.97
2023-04-03T06:39:14.079Z,101754.38
2023-04-03T06:40:19.069Z,101753.55
2023-04-03T06:41:11.065Z,101752.02
2023-04-03T06:42:11.069Z,101751.69
2023-04-03T06:43:11.076Z,101749.32
2023-04-03T06:44:11.068Z,101751.30
2023-04-03T06:45:11.063Z,101747.91
2023-04-03T06:46:15.116Z,101749.95
2023-04-03T06:47:14.072Z,101750.55
2023-04-03T06:48:11.112Z,101746.75
2023-04-03T06:49:12.068Z,101754.77
2023-04-03T06:50:11.070Z,101753.36
2023-04-03T06:51:17.069Z,101753.71
2023-04-03T06:52:11.071Z,101750.62
2023-04-03T06:53:11.074Z,101753.90
2023-04-03T06:54:11.074Z,101750.15
2023-04-03T06:55:11.073Z,101751.11
2023-04-03T06:56:11.077Z,101747.46
2023-04-03T06:57:11.087Z,101755.09
2023-04-03T06:58:11.069Z,101751.33
2023-04-03T06:59:11.077Z,101747.63
2023-04-03T07:00:11.069Z,101748.55
2023-04-03T07:01:11.057Z,101743.79
2023-04-03T07:02:11.069Z,101744.18
2023-04-03T07:03:11.071Z,101741.95
2023-04-03T07:04:11.069Z,101744.05
2023-04-03T07:05:11.065Z,101743.70
2023-04-03T07:06:15.067Z,101740.60
2023-04-03T07:07:11.262Z,101736.63
2023-04-03T07:08:11.061Z,101740.80
2023-04-03T07:09:11.064Z,101739.86
2023-04-03T07:10:11.104Z,101739.79
2023-04-03T07:11:11.070Z,101740.64
2023-04-03T07:12:11.071Z,101743.07
2023-04-03T07:13:11.062Z,101740.55
2023-04-03T07:14:11.073Z,101742.23
2023-04-03T07:15:11.064Z,101734.43
2023-04-03T07:16:11.090Z,101733.59
2023-04-03T07:17:11.062Z,101737.01
2023-04-03T07:18:11.123Z,101737.90
2023-04-03T07:19:11.061Z,101736.50
2023-04-03T07:20:11.066Z,101737.39
2023-04-03T07:21:11.414Z,101744.48
2023-04-03T07:22:11.064Z,101743.75
2023-04-03T07:23:11.073Z,101742.83
2023-04-03T07:24:13.232Z,101744.04
2023-04-03T07:25:14.333Z,101737.32
2023-04-03T07:26:11.094Z,101737.42
2023-04-03T07:27:11.072Z,101741.49
2023-04-03T07:28:11.063Z,101741.71
2023-04-03T07:29:11.067Z,101746.75
2023-04-03T07:30:11.072Z,101745.65
2023-04-03T07:31:12.115Z,101742.96
2023-04-03T07:32:11.063Z,101744.64
2023-04-03T07:33:11.113Z,101743.99
2023-04-03T07:34:11.085Z,101748.05
2023-04-03T07:35:11.067Z,101746.88
2023-04-03T07:36:11.114Z,101748.79
2023-04-03T07:37:11.068Z,101746.55
2023-04-03T07:38:11.067Z,101747.76
2023-04-03T07:39:11.074Z,101747.36
2023-04-03T07:40:11.063Z,101747.97
2023-04-03T07:41:16.081Z,101749.34
2023-04-03T07:42:11.084Z,101745.11
2023-04-03T07:43:11.076Z,101748.57
2023-04-03T07:44:11.069Z,101746.34
2023-04-03T07:45:11.077Z,101746.50
2023-04-03T07:46:11.091Z,101746.58
2023-04-03T07:47:11.101Z,101745.13
2023-04-03T07:48:13.068Z,101743.62
2023-04-03T07:49:11.075Z,101742.55
2023-04-03T07:50:11.068Z,101744.86
2023-04-03T07:51:11.076Z,101742.61
2023-04-03T07:52:11.073Z,101744.32
2023-04-03T07:53:11.080Z,101741.46
2023-04-03T07:54:11.076Z,101740.43
2023-04-03T07:55:11.072Z,101740.90
2023-04-03T07:56:11.072Z,101740.36
2023-04-03T07:57:11.098Z,101741.95
2023-04-03T07:58:14.065Z,101734.90
2023-04-03T07:59:11.119Z,101733.09
2023-04-03T08:00:11.088Z,101731.95
2023-04-03T08:01:11.072Z,101734.70
2023-04-03T08:02:11.077Z,101732.70
2023-04-03T08:03:12.415Z,101733.12
2023-04-03T08:04:11.125Z,101734.62
2023-04-03T08:05:11.082Z,101736.15
2023-04-03T08:06:15.741Z,101733.65
2023-04-03T08:07:13.036Z,101732.36
2023-04-03T08:08:11.066Z,101734.71
2023-04-03T08:09:11.097Z,101731.76
2023-04-03T08:10:11.084Z,101735.16
2023-04-03T08:11:11.072Z,101738.49
2023-04-03T08:12:11.090Z,101737.83
2023-04-03T08:13:11.065Z,101741.33
2023-04-03T08:14:11.077Z,101742.49
2023-04-03T08:15:11.073Z,101737.82
2023-04-03T08:16:17.086Z,101739.16
2023-04-03T08:17:11.065Z,101740.64
2023-04-03T08:18:11.078Z,101742.13
2023-04-03T08:19:18.743Z,101739.11
2023-04-03T08:20:13.070Z,101740.96
2023-04-03T08:21:11.075Z,101739.81
2023-04-03T08:22:11.076Z,101740.20
2023-04-03T08:23:11.076Z,101738.05
2023-04-03T08:24:11.096Z,101732.74
2023-04-03T08:25:11.069Z,101733.80
2023-04-03T08:26:11.070Z,101741.33
2023-04-03T08:27:11.064Z,101737.82
2023-04-03T08:28:11.069Z,101736.08
2023-04-03T08:29:11.069Z,101735.37
2023-04-03T08:30:11.066Z,101733.29
2023-04-03T08:31:15.121Z,101735.70
2023-04-03T08:32:11.073Z,101739.21
2023-04-03T08:33:11.123Z,101729.46
2023-04-03T08:34:11.140Z,101741.71
2023-04-03T08:35:11.074Z,101741.83
2023-04-03T08:36:19.080Z,101740.30
2023-04-03T08:37:11.069Z,101744.15
2023-04-03T08:38:11.181Z,101743.80
2023-04-03T08:39:11.066Z,101742.04
2023-04-03T08:40:15.107Z,101746.98
2023-04-03T08:41:16.100Z,101748.91
2023-04-03T08:42:20.072Z,101745.78
2023-04-03T08:43:19.075Z,101745.92
2023-04-03T08:44:19.080Z,101744.25
2023-04-03T08:45:22.073Z,101745.32
2023-04-03T08:46:14.070Z,101744.01
2023-04-03T08:47:19.077Z,101743.95
2023-04-03T08:48:20.075Z,101745.46
2023-04-03T08:49:19.133Z,101746.74
2023-04-03T08:50:17.104Z,101744.62
2023-04-03T08:51:21.078Z,101740.29
2023-04-03T08:52:14.072Z,101740.50
2023-04-03T08:53:19.081Z,101741.66
2023-04-03T08:54:19.074Z,101746.02
2023-04-03T08:55:19.076Z,101743.67
2023-04-03T08:56:12.082Z,101742.87
2023-04-03T08:57:11.131Z,101744.70
2023-04-03T08:58:21.080Z,101748.47
2023-04-03T08:59:15.071Z,101751.84
2023-04-03T09:00:19.074Z,101746.61
2023-04-03T09:01:19.098Z,101754.00
2023-04-03T09:02:20.077Z,101754.67
2023-04-03T09:03:14.206Z,101745.23
2023-04-03T09:04:17.157Z,101749.49
2023-04-03T09:05:16.080Z,101740.80
2023-04-03T09:06:20.083Z,101739.16
2023-04-03T09:07:22.071Z,101741.67
2023-04-03T09:08:22.074Z,101742.75
2023-04-03T09:09:19.077Z,101744.51
2023-04-03T09:10:13.079Z,101746.25
2023-04-03T09:11:19.078Z,101743.12
2023-04-03T09:12:22.107Z,101735.95
2023-04-03T09:13:22.076Z,101733.01
2023-04-03T09:14:19.074Z,101731.66
2023-04-03T09:15:24.854Z,101728.68
2023-04-03T09:16:24.101Z,101731.85
2023-04-03T09:17:19.077Z,101726.86
2023-04-03T09:18:19.080Z,101733.96
2023-04-03T09:19:19.151Z,101736.17
2023-04-03T09:20:22.111Z,101733.45
2023-04-03T09:21:19.077Z,101729.61
2023-04-03T09:22:19.077Z,101728.09
2023-04-03T09:23:19.072Z,101727.17
2023-04-03T09:24:13.074Z,101728.70
2023-04-03T09:25:22.087Z,101732.36
2023-04-03T09:26:23.103Z,101728.68
2023-04-03T09:27:12.169Z,101728.37
2023-04-03T09:28:14.094Z,101729.11
2023-04-03T09:29:13.106Z,101732.44
2023-04-03T09:30:18.161Z,101724.88
2023-04-03T09:31:22.129Z,101729.62
2023-04-03T09:32:22.072Z,101737.58
2023-04-03T09:33:11.092Z,101727.57
2023-04-03T09:34:19.101Z,101728.34
2023-04-03T09:35:21.808Z,101728.98
2023-04-03T09:36:13.080Z,101731.17
2023-04-03T09:37:17.093Z,101729.76
2023-04-03T09:38:19.145Z,101731.66
2023-04-03T09:39:18.077Z,101729.07
2023-04-03T09:40:19.073Z,101734.78
2023-04-03T09:41:19.075Z,101725.48
2023-04-03T09:42:19.078Z,101723.78
2023-04-03T09:43:19.113Z,101720.93
2023-04-03T09:44:19.080Z,101717.37
2023-04-03T09:45:19.078Z,101720.91
2023-04-03T09:46:20.709Z,101715.44
2023-04-03T09:47:22.078Z,101715.05
2023-04-03T09:48:17.224Z,101718.39
2023-04-03T09:49:13.086Z,101719.83
2023-04-03T09:50:19.073Z,101714.11
2023-04-03T09:51:16.075Z,101712.29
2023-04-03T09:52:19.077Z,101709.82
2023-04-03T09:53:19.077Z,101713.52
2023-04-03T09:54:19.078Z,101718.84
2023-04-03T09:55:19.085Z,101715.07
2023-04-03T09:56:21.090Z,101710.82
2023-04-03T09:57:11.155Z,101713.02
2023-04-03T09:58:20.073Z,101711.56
2023-04-03T09:59:15.086Z,101712.63
2023-04-03T10:00:19.072Z,101711.09
2023-04-03T10:01:19.103Z,101710.27
2023-04-03T10:02:22.070Z,101715.08
2023-04-03T10:03:19.077Z,101714.18
2023-04-03T10:04:18.112Z,101712.88
2023-04-03T10:05:19.108Z,101713.67
2023-04-03T10:06:23.068Z,101712.44
2023-04-03T10:07:19.065Z,101714.94
2023-04-03T10:08:15.071Z,101714.05
2023-04-03T10:09:19.063Z,101717.41
2023-04-03T10:10:19.074Z,101715.35
2023-04-03T10:11:15.078Z,101710.93
2023-04-03T10:12:11.063Z,101710.14
2023-04-03T10:13:21.096Z,101716.64
2023-04-03T10:14:17.074Z,101711.62
2023-04-03T10:15:19.070Z,101712.58
2023-04-03T10:16:15.152Z,101707.93
2023-04-03T10:17:25.105Z,101710.29
2023-04-03T10:18:24.371Z,101712.20
2023-04-03T10:19:21.066Z,101712.41
2023-04-03T10:20:19.065Z,101713.23
2023-04-03T10:21:27.244Z,101710.45
2023-04-03T10:22:21.017Z,101709.55
2023-04-03T10:23:22.072Z,101712.15
2023-04-03T10:24:15.074Z,101711.87
2023-04-03T10:25:19.074Z,101707.61
2023-04-03T10:26:22.064Z,101711.94
2023-04-03T10:27:22.067Z,101712.40
2023-04-03T10:28:21.063Z,101708.36
2023-04-03T10:29:19.073Z,101705.29
2023-04-03T10:30:22.065Z,101706.12
2023-04-03T10:31:24.098Z,101705.42
2023-04-03T10:32:22.094Z,101704.48
2023-04-03T10:33:19.105Z,101707.37
2023-04-03T10:34:22.066Z,101707.27
2023-04-03T10:35:19.071Z,101704.23
2023-04-03T10:36:19.074Z,101703.41
2023-04-03T10:37:24.089Z,101702.72
2023-04-03T10:38:19.070Z,101710.52
2023-04-03T10:39:22.081Z,101707.87
2023-04-03T10:40:19.065Z,101713.37
2023-04-03T10:41:19.067Z,101711.69
2023-04-03T10:42:22.065Z,101711.84
2023-04-03T10:43:21.067Z,101709.16
2023-04-03T10:44:19.065Z,101707.62
2023-04-03T10:45:19.069Z,101711.69
2023-04-03T10:46:18.126Z,101709.08
2023-04-03T10:47:18.064Z,101718.62
2023-04-03T10:48:22.061Z,101703.46
2023-04-03T10:49:19.067Z,101703.23
2023-04-03T10:50:19.087Z,101705.14
2023-04-03T10:51:19.066Z,101699.56
2023-04-03T10:52:19.067Z,101699.48
2023-04-03T10:53:19.070Z,101703.69
2023-04-03T10:54:19.071Z,101703.15
2023-04-03T10:55:19.073Z,101701.79
2023-04-03T10:56:19.075Z,101701.32
2023-04-03T10:57:13.962Z,101702.70
2023-04-03T10:58:18.072Z,101698.21
2023-04-03T10:59:19.080Z,101706.08
2023-04-03T11:00:16.077Z,101700.52
2023-04-03T11:01:13.132Z,101701.29
2023-04-03T11:02:19.165Z,101697.87
2023-04-03T11:03:22.149Z,101684.14
2023-04-03T11:04:11.130Z,101691.25
2023-04-03T11:05:23.072Z,101689.43
2023-04-03T11:06:13.070Z,101689.10
2023-04-03T11:07:21.077Z,101686.31
2023-04-03T11:08:19.139Z,101684.98
2023-04-03T11:09:21.090Z,101683.30
2023-04-03T11:10:18.066Z,101683.95
2023-04-03T11:11:16.078Z,101680.46
2023-04-03T11:12:17.083Z,101683.82
2023-04-03T11:13:17.085Z,101677.97
2023-04-03T11:14:19.073Z,101677.62
2023-04-03T11:15:20.074Z,101679.30
2023-04-03T11:16:13.104Z,101681.55
2023-04-03T11:17:19.105Z,101682.25
2023-04-03T11:18:15.138Z,101674.14
2023-04-03T11:19:19.073Z,101665.73
2023-04-03T11:20:19.112Z,101670.95
2023-04-03T11:21:18.086Z,101669.66
2023-04-03T11:22:19.074Z,101668.62
2023-04-03T11:23:19.079Z,101672.91
2023-04-03T11:24:20.079Z,101670.12